Reportages photos

Connexion

10km

10 KM FOULEES DANNOISES du 05/06/16 (Reelle 9,8)
Rang Dossard Nom Prénom Temps Cat Rang Cat Ecart Ecart Cat Club Vitesse Km/h Temps au Km
1 81 RAMET BENOIT 00:35:11 SEM 1 00:00:00 00:00:00 TOUQUET OPALE ATHLETISME 16,712 03:35
2 109 HOLARD MAXIMILIEN 00:36:39 SEM 2 00:01:28 00:01:28 - 16,044 03:44
3 102 DUCROCQ MARC-ANTOINE 00:37:23 SEM 3 00:02:12 00:02:12 BOULOGNE ATHLETIC CLUB 15,729 03:49
4 93 HUMEZ ALEXIS 00:39:03 CAM 1 00:03:52 00:00:00 - 15,058 03:59
5 45 CARDON FLORIAN 00:39:08 SEM 4 00:03:57 00:03:57 LE DRAPEAU 15,026 04:00
6 103 DANGLETERRE DIMITRI 00:39:16 SEM 5 00:04:05 00:04:05 TOUQUET OPALE ATHLETISME 14,975 04:00
7 66 SKRZYPCZAK DAVID 00:40:12 SEM 6 00:05:01 00:05:01 BERCK OPALE SUD TRI 14,627 04:06
8 76 BADON EMMANUEL 00:40:30 SEM 7 00:05:19 00:05:19 ATHLETISME CLUB OUTREAU 14,519 04:08
9 120 DUMETZ FRANCOIS 00:40:53 SEM 8 00:05:42 00:05:42 TOUQUET OPALE ATHLETISME 14,382 04:10
10 63 LEHON LUDOVIC 00:41:50 SEM 9 00:06:39 00:06:39 ATHLETISME CLUB OUTREAU 14,056 04:16
11 72 EVRARD GAEL 00:41:59 SEM 10 00:06:48 00:06:48 TOUQUET OPALE ATHLETISME 14,006 04:17
12 98 LEMAITRE LAURENT 00:42:07 V1M 1 00:06:56 00:00:00 - 13,961 04:18
13 110 BRILLARD SEBASTIEN 00:42:14 SEM 11 00:07:03 00:07:03 ATHLETISME CLUB OUTREAU 13,923 04:19
14 142 HONVAULT EMMANUEL 00:42:19 SEM 12 00:07:08 00:07:08 TESTING RUNNING 13,895 04:19
15 131 LE BEC MICHAEL 00:42:33 SEM 13 00:07:22 00:07:22 ATHLETIQUE CLUB CAPELLOIS 13,819 04:21
16 20 FAVIERE AURELIEN 00:43:01 SEM 14 00:07:50 00:07:50 - 13,669 04:23
17 89 SPAGNOL JEAN 00:43:02 V2M 1 00:07:51 00:00:00 - 13,664 04:23
18 118 DUCROCQ YVES 00:43:03 V2M 2 00:07:52 00:00:01 - 13,659 04:24
19 128 UNISSART MORGAN 00:43:12 SEM 15 00:08:01 00:08:01 - 13,611 04:24
20 30 RAY SAMUEL 00:43:14 V1M 2 00:08:03 00:01:07 - 13,601 04:25
21 137 LOIRE NICOLAS 00:43:15 SEM 16 00:08:04 00:08:04 LYS CALAIS TRIATHLON 13,595 04:25
22 42 BOUVOT CYRILLE 00:43:19 SEM 17 00:08:08 00:08:08 LE DRAPEAU 13,574 04:25
23 88 DUVAL LOIC 00:43:30 SEM 18 00:08:19 00:08:19 TOUQUET OPALE ATHLETISME 13,517 04:26
24 33 ROBART EDDY 00:43:33 V1M 3 00:08:22 00:01:26 CS NESLES 13,502 04:27
25 57 LELEU LAETITIA 00:43:33 V1F 1 00:08:22 00:00:00 LE DRAPEAU 13,502 04:27
26 75 TISSERAND THIBAUT 00:44:15 SEM 19 00:09:04 00:09:04 - 13,288 04:31
27 36 DUFOUR ANTOINE 00:44:16 SEM 20 00:09:05 00:09:05 ATHLETISME CLUB OUTREAU 13,283 04:31
28 25 GINOLIN FRANKIE 00:44:26 V1M 4 00:09:15 00:02:19 LE DRAPEAU 13,233 04:32
29 92 MOYSE CHRISTOPHE 00:44:39 V1M 5 00:09:28 00:02:32 TOUQUET OPALE ATHLETISME 13,169 04:33
30 34 COLLIER GUILLAUME 00:44:42 SEM 21 00:09:31 00:09:31 CS NESLES 13,154 04:34
31 17 ROCHE ESTELLE 00:44:46 SEF 1 00:09:35 00:00:00 RUN FREEDOM 13,135 04:34
32 91 POULAIN EDDY 00:44:47 V1M 6 00:09:36 00:02:40 - 13,130 04:34
33 68 THUILLIER RENAUD 00:44:54 SEM 22 00:09:43 00:09:43 TOUQUET OPALE ATHLETISME 13,096 04:35
34 82 DEWEER NICOLAS 00:44:59 SEM 23 00:09:48 00:09:48 CS NESLES 13,072 04:35
35 28 BEAUVOIS CHRISTOPHE 00:44:59 SEM 24 00:09:48 00:09:48 TEAM RAKLETTE  13,072 04:35
36 73 MALLIOPOULOS XAVIER 00:45:04 V2M 3 00:09:53 00:02:02 BERCK A C O 13,047 04:36
37 87 BAHEUX SEBASTIEN 00:45:30 SEM 25 00:10:19 00:10:19 AS ETAPLES TRI 12,923 04:39
38 104 MILLE SEBASTIEN 00:45:37 SEM 26 00:10:26 00:10:26 - 12,890 04:39
39 62 SPILLIAERT FLORENCE 00:45:42 V1F 2 00:10:31 00:02:09 LE DRAPEAU 12,867 04:40
40 100 BAHEUX MARC-ANTOINE 00:45:54 SEM 27 00:10:43 00:10:43 - 12,810 04:41
41 95 PAVY DAVID 00:45:55 SEM 28 00:10:44 00:10:44 - 12,806 04:41
42 11 BEGUE THIERRY 00:45:56 V1M 7 00:10:45 00:03:49 - 12,801 04:41
43 106 DEBRUXELLES SEBASTIEN 00:46:00 V1M 8 00:10:49 00:03:53 - 12,783 04:42
44 53 HANON JEAN-PIERRE 00:46:01 V3M 1 00:10:50 00:00:00 LE DRAPEAU 12,778 04:42
45 126 MIONNET CHRISTIAN 00:46:03 V1M 9 00:10:52 00:03:56 - 12,769 04:42
46 64 VAMBRE PIERRE-ALAIN 00:46:05 SEM 29 00:10:54 00:10:54 - 12,759 04:42
47 39 DUHAUTOY BENJAMIN 00:46:09 SEM 30 00:10:58 00:10:58 - 12,741 04:43
48 116 LEMAY ERIC 00:46:12 V2M 4 00:11:01 00:03:10 - 12,727 04:43
49 1 BRANLY HERVE 00:46:15 V1M 10 00:11:04 00:04:08 - 12,714 04:43
50 10 JOUGLEUX THIBAULT 00:46:16 CAM 2 00:11:05 00:07:13 CS NESLES 12,709 04:43
51 143 VAN MEIR DGIOVANI 00:46:19 SEM 31 00:11:08 00:11:08 SAINT MARTIN ATHLETISME 12,695 04:44
52 67 PAILLART ANTHONY 00:46:25 CAM 3 00:11:14 00:07:22 - 12,668 04:44
53 139 SAUVAGE JONATHAN 00:46:28 SEM 32 00:11:17 00:11:17 - 12,654 04:44
54 24 MARGOLLE CHRISTOPHE 00:46:44 V1M 11 00:11:33 00:04:37 - 12,582 04:46
55 49 DOCQUOIS MICHEL 00:46:48 V1M 12 00:11:37 00:04:41 LE DRAPEAU 12,564 04:47
56 7 DUHAMEL VINCENT 00:46:55 V1M 13 00:11:44 00:04:48 - 12,533 04:47
57 119 LAVERDURE PASCAL 00:47:01 V2M 5 00:11:50 00:03:59 ATHLETISME CLUB OUTREAU 12,506 04:48
58 74 SCOTTE MATTHIEU 00:47:13 SEM 33 00:12:02 00:12:02 - 12,453 04:49
59 8 CANNIE FRANCK 00:47:13 V1M 14 00:12:02 00:05:06 - 12,453 04:49
60 83 GUERVILLE MAXIME 00:47:35 SEM 34 00:12:24 00:12:24 - 12,357 04:51
61 80 ROBERT DAVID 00:48:07 V1M 15 00:12:56 00:06:00 ATHLETISME CLUB OUTREAU 12,220 04:55
62 4 GOSSELIN MAXIME 00:48:18 SEM 35 00:13:07 00:13:07 - 12,174 04:56
63 48 DELETOILLE JULIEN 00:48:20 SEM 36 00:13:09 00:13:09 LE DRAPEAU 12,166 04:56
64 96 BOURDON JEROME 00:48:26 SEM 37 00:13:15 00:13:15 - 12,140 04:57
65 40 MIONNET BENJAMIN 00:48:30 SEM 38 00:13:19 00:13:19 - 12,124 04:57
66 99 LHERMILLIER FREDDY 00:48:38 V3M 2 00:13:27 00:02:37 TOUQUET OPALE ATHLETISME 12,090 04:58
67 115 TASSART HELENE 00:49:01 SEF 2 00:13:50 00:04:15 A.S. MARCK 11,996 05:00
68 69 FAIT FRANCK 00:49:39 V2M 6 00:14:28 00:06:37 - 11,843 05:04
69 136 RAMET GUILLAUME 00:49:44 CAM 4 00:14:33 00:10:41 TOUQUET OPALE ATHLETISME 11,823 05:04
70 134 HAGNERE DAMIEN 00:49:48 SEM 39 00:14:37 00:14:37 - 11,807 05:05
71 26 GREMONT SOPHIE 00:49:58 V1F 3 00:14:47 00:06:25 TOUQUET OPALE ATHLETISME 11,768 05:06
72 35 BOULARD STEPHANE 00:50:09 SEM 40 00:14:58 00:14:58 - 11,725 05:07
73 133 THIBAUT OLIVIER 00:50:32 SEM 41 00:15:21 00:15:21 - 11,636 05:09
74 145 GUYOT CHRISTOPHE 00:50:45 V1M 16 00:15:34 00:08:38 - 11,586 05:11
75 52 HACQUEL MICHEL 00:50:47 V1M 17 00:15:36 00:08:40 LE DRAPEAU 11,579 05:11
76 60 PAQUES ERIC 00:50:55 V2M 7 00:15:44 00:07:53 LE DRAPEAU 11,548 05:12
77 13 DROLLET HERVE 00:51:01 V2M 8 00:15:50 00:07:59 - 11,526 05:12
78 41 BAILLIEU ROSELINE 00:51:02 SEF 3 00:15:51 00:06:16 LE DRAPEAU 11,522 05:12
79 94 BAHEUX ERIC 00:51:02 V2M 9 00:15:51 00:08:00 - 11,522 05:12
80 43 BRANLY-LAMARRE SABRINA 00:51:36 SEF 4 00:16:25 00:06:50 LE DRAPEAU 11,395 05:16
81 84 LEFEVRE Jeremy 00:51:45 SEM 42 00:16:34 00:16:34 - 11,362 05:17
82 122 BEAUGENDRE EDOUARD 00:51:46 V1M 18 00:16:35 00:09:39 - 11,359 05:17
83 127 DARCY ALEXANDRE 00:51:47 SEM 43 00:16:36 00:16:36 - 11,355 05:17
84 101 LHERONDELLE CHRISTOPHER 00:51:49 SEM 44 00:16:38 00:16:38 ATHLETISME CLUB OUTREAU 11,348 05:17
85 117 GOURDIN FREDERIQUE 00:51:51 V1F 4 00:16:40 00:08:18 - 11,340 05:17
86 90 LEBAS BENOIT 00:51:56 V1M 19 00:16:45 00:09:49 - 11,322 05:18
87 31 CHARTAUX SUZEL 00:51:59 V1F 5 00:16:48 00:08:26 CS NESLES 11,311 05:18
88 21 CAUDOUX PATRICK 00:52:04 V1M 20 00:16:53 00:09:57 - 11,293 05:19
89 29 VAN DOREN MICHEL 00:52:23 V3M 3 00:17:12 00:06:22 TOUQUET OPALE ATHLETISME 11,225 05:21
90 124 BENSE ERIC 00:53:01 V2M 10 00:17:50 00:09:59 - 11,091 05:25
91 138 CLERY STEVE 00:53:17 SEM 45 00:18:06 00:18:06 - 11,035 05:26
92 125 DELANNOY AURELIE 00:53:26 SEF 5 00:18:15 00:08:40 ATHLETISME CLUB OUTREAU 11,004 05:27
93 141 SEN CHRISNA 00:53:43 SEF 6 00:18:32 00:08:57 TESTING RUNNING 10,946 05:29
94 123 BENSE BOULY STEPHANIE 00:53:55 V1F 6 00:18:44 00:10:22 - 10,906 05:30
95 77 DACHICOURT PHILIPPE 00:54:03 V2M 11 00:18:52 00:11:01 - 10,879 05:31
96 50 FAUQUEMBERGUE PHILIPPE 00:54:10 V2M 12 00:18:59 00:11:08 LE DRAPEAU 10,855 05:32
97 130 GOSSELIN CEDRIC 00:54:24 SEM 46 00:19:13 00:19:13 - 10,809 05:33
98 129 CAROUGE YVES 00:55:19 V2M 13 00:20:08 00:12:17 - 10,630 05:39
99 37 CRETEL LAURENCE 00:55:29 V1F 7 00:20:18 00:11:56 CS NESLES 10,598 05:40
100 32 CHARTAUX RAPHAEL 00:55:29 V1M 21 00:20:18 00:13:22 TOUQUET TRAIL NATURE 10,598 05:40
101 71 FAIT CASSANDRE 00:55:47 SEF 7 00:20:36 00:11:01 - 10,541 05:42
102 114 BRIZZI ERIC 00:55:54 V1M 22 00:20:43 00:13:47 - 10,519 05:42
103 70 BEGUE ALEXIS 00:55:56 SEM 47 00:20:45 00:20:45 - 10,513 05:42
104 135 HAGNERE LORIS 00:57:02 JUM 1 00:21:51 00:00:00 - 10,310 05:49
105 51 FAUQUEMBERGUE VERONIQUE 00:57:12 V1F 8 00:22:01 00:13:39 LE DRAPEAU 10,280 05:50
106 65 FONTAINE EMELINE 00:58:03 JUF 1 00:22:52 00:00:00 - 10,129 05:55
107 111 FOURNIER FRANCOIS 00:58:52 V1M 23 00:23:41 00:16:45 - 9,989 06:00
108 18 LEFEBVRE JEROME 00:59:16 SEM 48 00:24:05 00:24:05 - 9,921 06:03
109 19 SEGUIN AURORE 00:59:17 SEF 8 00:24:06 00:14:31 ATHLETISME CLUB OUTREAU 9,918 06:03
110 108 RAMET CORALIE 00:59:22 V1F 9 00:24:11 00:15:49 CAC CALOTERIE 9,905 06:03
111 86 HAGNERE MICHEL 00:59:22 SEM 49 00:24:11 00:24:11 - 9,905 06:03
112 113 BRIZZI JULIE 01:00:55 SEF 9 00:25:44 00:16:09 - 9,653 06:13
113 105 SAISON SEVERINA 01:01:14 SEF 10 00:26:03 00:16:28 - 9,603 06:15
114 5 CAZIER MICHEL 01:02:21 V3M 4 00:27:10 00:16:20 - 9,431 06:22
115 97 GUERVILLE ELISE 01:02:24 V1F 10 00:27:13 00:18:51 ATHLETIQUE CLUB CAPELLOIS 9,423 06:22
116 58 MODOLO FANNY 01:02:52 V1F 11 00:27:41 00:19:19 LE DRAPEAU 9,353 06:25
117 54 HANON LILIANE 01:02:52 V3F 1 00:27:41 00:00:00 LE DRAPEAU 9,353 06:25
118 22 ZIMNY YANNICK 01:03:40 V1M 24 00:28:29 00:21:33 CS NESLES 9,236 06:30
119 121 MINET ROGER 01:04:34 V3M 5 00:29:23 00:18:33 - 9,107 06:35
120 85 RAMET HELENE 01:04:59 SEF 11 00:29:48 00:20:13 - 9,048 06:38
121 140 DECORTE JULIE 01:05:00 SEF 12 00:29:49 00:20:14 - 9,046 06:38
122 79 LETENDART DAVID 01:07:18 V3M 6 00:32:07 00:21:17 - 8,737 06:52
123 144 ETIENNE CATHERINE 01:07:48 V2F 1 00:32:37 00:00:00 - 8,673 06:55
124 132 PAUL MURIELLE 01:09:10 SEF 13 00:33:59 00:24:24 - 8,501 07:03
125 112 LEROY AURELIE 01:09:26 SEF 14 00:34:15 00:24:40 - 8,469 07:05
126 6 SENEZ GERARD 01:10:16 V3M 7 00:35:05 00:24:15 - 8,368 07:10
127 78 HUGO ALAIN 01:14:35 V3M 8 00:39:24 00:28:34 C C CASSEL 7,884 07:37
128 44 CARDON FRANCK 01:15:09 V1M 25 00:39:58 00:33:02 LE DRAPEAU 7,824 07:40
129 107 PRUVOT ISABELLE 01:19:35 SEF 15 00:44:24 00:34:49 - 7,388 08:07